createdAt,value
2018-10-03T00:03:10.098Z,99.99
2018-10-03T00:08:05.762Z,99.99
2018-10-03T00:13:01.847Z,99.99
2018-10-03T00:17:58.420Z,99.99
2018-10-03T00:22:54.079Z,99.99
2018-10-03T00:27:50.362Z,99.99
2018-10-03T00:32:45.873Z,99.99
2018-10-03T00:37:41.965Z,99.99
2018-10-03T00:42:37.623Z,99.99
2018-10-03T00:47:33.446Z,99.99
2018-10-03T00:52:29.636Z,99.99
2018-10-03T00:57:25.668Z,99.99
2018-10-03T01:02:21.150Z,99.99
2018-10-03T01:07:17.170Z,99.99
2018-10-03T01:12:12.980Z,99.99
2018-10-03T01:17:08.871Z,99.99
2018-10-03T01:22:05.093Z,99.99
2018-10-03T01:27:01.997Z,99.99
2018-10-03T01:31:57.403Z,99.99
2018-10-03T01:36:53.548Z,99.99
2018-10-03T01:41:49.421Z,99.99
2018-10-03T01:46:45.175Z,99.99
2018-10-03T01:51:42.112Z,99.99
2018-10-03T01:56:37.637Z,99.99
2018-10-03T02:01:33.304Z,99.99
2018-10-03T02:06:30.205Z,99.99
2018-10-03T02:11:26.986Z,99.99
2018-10-03T02:16:22.611Z,99.99
2018-10-03T02:21:18.459Z,99.99
2018-10-03T02:26:15.947Z,99.99
2018-10-03T02:31:11.415Z,99.99
2018-10-03T02:36:07.347Z,99.99
2018-10-03T02:41:04.295Z,99.99
2018-10-03T02:45:59.926Z,99.99
2018-10-03T02:50:55.327Z,99.99
2018-10-03T02:55:52.070Z,99.99
2018-10-03T03:00:48.971Z,99.99
2018-10-03T03:05:44.335Z,99.99
2018-10-03T03:10:40.130Z,99.99
2018-10-03T03:15:36.530Z,99.99
2018-10-03T03:20:32.294Z,99.99
2018-10-03T03:25:28.134Z,99.99
2018-10-03T03:30:25.187Z,99.99
2018-10-03T03:35:20.805Z,99.99
2018-10-03T03:40:17.775Z,99.99
2018-10-03T03:45:14.778Z,99.99
2018-10-03T03:50:10.147Z,99.99
2018-10-03T03:55:05.895Z,99.99
2018-10-03T04:00:01.670Z,99.99
2018-10-03T04:04:58.444Z,99.99
2018-10-03T04:09:54.078Z,99.99
2018-10-03T04:14:50.883Z,99.99
2018-10-03T04:19:46.561Z,99.99
2018-10-03T04:24:43.268Z,99.99
2018-10-03T04:29:39.712Z,99.99
2018-10-03T04:34:36.172Z,99.99
2018-10-03T04:39:32.572Z,99.99
2018-10-03T04:44:28.862Z,99.99
2018-10-03T04:49:25.167Z,99.99
2018-10-03T04:54:20.883Z,99.99
2018-10-03T04:59:16.670Z,99.99
2018-10-03T05:04:12.574Z,99.99
2018-10-03T05:09:08.409Z,99.99
2018-10-03T05:14:04.137Z,99.99
2018-10-03T05:18:59.980Z,99.99
2018-10-03T05:23:55.619Z,99.99
2018-10-03T05:28:51.523Z,99.99
2018-10-03T05:33:47.397Z,99.99
2018-10-03T05:38:43.245Z,99.99
2018-10-03T05:43:38.880Z,99.99
2018-10-03T05:48:34.631Z,99.99
2018-10-03T05:53:30.955Z,99.99
2018-10-03T05:58:27.841Z,99.99
2018-10-03T06:03:24.111Z,99.99
2018-10-03T06:08:20.407Z,99.99
2018-10-03T06:13:16.500Z,99.99
2018-10-03T06:18:12.410Z,99.99
2018-10-03T06:23:08.526Z,99.99
2018-10-03T06:28:04.479Z,99.99
2018-10-03T06:33:01.051Z,99.99
2018-10-03T06:37:56.877Z,99.99
2018-10-03T06:42:52.844Z,99.99
2018-10-03T06:47:48.960Z,99.99
2018-10-03T06:52:44.946Z,99.99
2018-10-03T06:57:41.441Z,99.99
2018-10-03T07:02:37.555Z,99.99
2018-10-03T07:07:34.587Z,99.99
2018-10-03T07:12:31.575Z,99.99
2018-10-03T07:17:27.089Z,99.99
2018-10-03T07:22:24.513Z,99.99
2018-10-03T07:27:20.209Z,99.99
2018-10-03T07:32:16.061Z,99.99
2018-10-03T07:37:12.480Z,99.99
2018-10-03T07:42:09.505Z,99.99
2018-10-03T07:47:05.293Z,99.99
2018-10-03T07:52:01.292Z,99.99
2018-10-03T07:56:57.604Z,99.99
2018-10-03T08:01:53.478Z,99.99
2018-10-03T08:06:51.238Z,99.99
2018-10-03T08:11:47.835Z,99.99
2018-10-03T08:16:43.732Z,99.99
2018-10-03T08:21:40.039Z,99.99
2018-10-03T08:26:36.682Z,99.99
2018-10-03T08:31:33.184Z,99.99
2018-10-03T08:36:30.018Z,99.99
2018-10-03T08:41:26.742Z,99.99
2018-10-03T08:46:22.017Z,99.99
2018-10-03T08:51:18.717Z,99.99
2018-10-03T08:56:14.389Z,99.99
2018-10-03T09:01:10.281Z,99.99
2018-10-03T09:06:06.213Z,99.99
2018-10-03T09:11:02.144Z,99.99
2018-10-03T09:15:59.131Z,97.89
2018-10-03T09:20:54.709Z,99.85
2018-10-03T09:25:51.620Z,99.76
2018-10-03T09:30:48.650Z,97.37
2018-10-03T09:35:45.066Z,97.08
2018-10-03T09:40:40.633Z,95.27
2018-10-03T09:45:36.599Z,93.40
2018-10-03T09:50:32.605Z,90.44
2018-10-03T09:55:29.063Z,92.45
2018-10-03T10:00:25.132Z,92.16
2018-10-03T10:05:21.052Z,87.66
2018-10-03T10:10:16.889Z,89.10
2018-10-03T10:15:12.886Z,88.48
2018-10-03T10:20:08.755Z,86.08
2018-10-03T10:25:05.771Z,85.32
2018-10-03T10:30:02.474Z,83.50
2018-10-03T10:34:58.222Z,83.69
2018-10-03T10:39:54.093Z,80.92
2018-10-03T10:44:49.962Z,79.68
2018-10-03T10:49:46.140Z,78.38
2018-10-03T10:54:43.135Z,77.46
2018-10-03T10:59:40.938Z,72.71
2018-10-03T11:04:36.842Z,73.09
2018-10-03T11:09:32.972Z,71.94
2018-10-03T11:14:30.325Z,73.28
2018-10-03T11:19:26.890Z,72.32
2018-10-03T11:24:23.631Z,73.95
2018-10-03T11:29:19.588Z,75.16
2018-10-03T11:34:16.214Z,75.16
2018-10-03T11:39:11.642Z,76.75
2018-10-03T11:44:07.456Z,77.26
2018-10-03T11:49:03.446Z,76.25
2018-10-03T11:53:59.434Z,72.80
2018-10-03T11:58:55.170Z,72.58
2018-10-03T12:03:50.730Z,71.68
2018-10-03T12:08:46.004Z,73.63
2018-10-03T12:13:42.010Z,74.20
2018-10-03T12:18:38.119Z,72.86
2018-10-03T12:23:33.910Z,69.70
2018-10-03T12:28:30.010Z,69.48
2018-10-03T12:33:25.647Z,69.19
2018-10-03T12:38:21.949Z,69.57
2018-10-03T12:43:19.432Z,67.88
2018-10-03T12:48:14.898Z,67.02
2018-10-03T12:53:11.342Z,67.88
2018-10-03T12:58:07.065Z,68.84
2018-10-03T13:03:03.484Z,68.11
2018-10-03T13:08:00.911Z,66.96
2018-10-03T13:12:56.644Z,67.88
2018-10-03T13:17:52.303Z,69.23
2018-10-03T13:22:48.017Z,69.42
2018-10-03T13:27:44.435Z,68.55
2018-10-03T13:32:41.538Z,68.55
2018-10-03T13:37:38.175Z,67.69
2018-10-03T13:42:33.834Z,67.69
2018-10-03T13:47:30.754Z,68.55
2018-10-03T13:52:27.144Z,70.56
2018-10-03T13:57:23.141Z,69.76
2018-10-03T14:02:18.429Z,66.22
2018-10-03T14:07:14.501Z,66.61
2018-10-03T14:12:10.727Z,66.61
2018-10-03T14:17:06.725Z,66.54
2018-10-03T14:22:03.349Z,65.97
2018-10-03T14:26:59.041Z,67.11
2018-10-03T14:31:54.815Z,66.74
2018-10-03T14:36:50.443Z,66.83
2018-10-03T14:41:47.330Z,66.54
2018-10-03T14:46:43.637Z,66.45
2018-10-03T14:51:39.288Z,67.21
2018-10-03T14:56:35.207Z,67.69
2018-10-03T15:01:31.058Z,69.00
2018-10-03T15:06:27.789Z,69.29
2018-10-03T15:11:24.017Z,70.34
2018-10-03T15:16:19.833Z,71.11
2018-10-03T15:21:16.502Z,72.54
2018-10-03T15:26:13.187Z,72.31
2018-10-03T15:31:08.582Z,71.93
2018-10-03T15:36:04.190Z,72.69
2018-10-03T15:41:01.271Z,73.36
2018-10-03T15:45:56.544Z,73.84
2018-10-03T15:50:53.429Z,74.61
2018-10-03T15:55:49.947Z,75.27
2018-10-03T16:00:46.436Z,76.57
2018-10-03T16:05:41.665Z,77.06
2018-10-03T16:10:39.130Z,78.58
2018-10-03T16:15:34.617Z,79.06
2018-10-03T16:20:30.430Z,78.87
2018-10-03T16:25:26.297Z,79.35
2018-10-03T16:30:23.121Z,79.06
2018-10-03T16:35:18.775Z,81.45
2018-10-03T16:40:15.673Z,80.02
2018-10-03T16:45:11.124Z,81.36
2018-10-03T16:50:08.305Z,80.69
2018-10-03T16:55:04.785Z,80.98
2018-10-03T17:00:00.137Z,81.84
2018-10-03T17:04:56.095Z,82.89
2018-10-03T17:09:51.879Z,84.03
2018-10-03T17:14:47.599Z,84.47
2018-10-03T17:19:43.378Z,85.14
2018-10-03T17:24:40.350Z,85.24
2018-10-03T17:29:36.009Z,85.71
2018-10-03T17:34:31.727Z,86.76
2018-10-03T17:39:27.647Z,87.43
2018-10-03T17:44:24.534Z,88.58
2018-10-03T17:49:20.139Z,89.20
2018-10-03T17:54:16.245Z,89.68
2018-10-03T17:59:11.864Z,90.54
2018-10-03T18:04:07.679Z,92.16
2018-10-03T18:09:03.444Z,92.45
2018-10-03T18:14:00.170Z,93.41
2018-10-03T18:18:55.803Z,94.17
2018-10-03T18:23:52.653Z,94.65
2018-10-03T18:28:48.109Z,95.84
2018-10-03T18:33:44.680Z,96.51
2018-10-03T18:38:41.529Z,96.56
2018-10-03T18:43:37.137Z,96.61
2018-10-03T18:48:33.307Z,97.13
2018-10-03T18:53:29.271Z,97.23
2018-10-03T18:58:25.226Z,97.03
2018-10-03T19:03:21.262Z,98.28
2018-10-03T19:08:17.084Z,98.90
2018-10-03T19:13:12.939Z,99.99
2018-10-03T19:18:08.659Z,99.99
2018-10-03T19:23:04.954Z,99.99
2018-10-03T19:28:01.765Z,99.99
2018-10-03T19:32:58.421Z,99.99
2018-10-03T19:37:54.072Z,99.99
2018-10-03T19:42:49.860Z,99.99
2018-10-03T19:47:46.391Z,99.99
2018-10-03T19:52:42.007Z,99.99
2018-10-03T19:57:37.707Z,99.99
2018-10-03T20:02:33.555Z,99.99
2018-10-03T20:07:30.730Z,99.99
2018-10-03T20:12:26.596Z,99.99
2018-10-03T20:17:22.343Z,99.99
2018-10-03T20:22:18.507Z,99.99
2018-10-03T20:27:14.759Z,99.99
2018-10-03T20:32:10.417Z,99.99
2018-10-03T20:37:07.287Z,99.99
2018-10-03T20:42:03.789Z,99.99
2018-10-03T20:46:59.216Z,99.99
2018-10-03T20:51:56.229Z,99.99
2018-10-03T20:56:52.127Z,99.99
2018-10-03T21:01:47.873Z,99.99
2018-10-03T21:06:44.936Z,99.99
2018-10-03T21:11:41.358Z,99.99
2018-10-03T21:16:38.410Z,99.99
2018-10-03T21:21:34.789Z,99.99
2018-10-03T21:26:30.144Z,99.99
2018-10-03T21:31:26.022Z,99.99
2018-10-03T21:36:21.863Z,99.99
2018-10-03T21:41:17.624Z,99.99
2018-10-03T21:46:13.527Z,99.99
2018-10-03T21:51:09.346Z,99.99
2018-10-03T21:56:05.968Z,99.99
2018-10-03T22:01:01.508Z,99.99
2018-10-03T22:05:58.435Z,99.99
2018-10-03T22:10:55.104Z,99.99
2018-10-03T22:15:50.979Z,99.99
2018-10-03T22:20:47.678Z,99.99
2018-10-03T22:25:43.288Z,99.99
2018-10-03T22:30:39.062Z,99.99
2018-10-03T22:35:35.085Z,99.99
2018-10-03T22:40:31.802Z,99.99
2018-10-03T22:45:27.555Z,99.99
2018-10-03T22:50:23.433Z,99.99
2018-10-03T22:55:19.286Z,99.99
2018-10-03T23:00:15.872Z,99.99
2018-10-03T23:05:11.564Z,99.99
2018-10-03T23:10:07.614Z,99.99
2018-10-03T23:15:03.612Z,99.99
2018-10-03T23:19:59.792Z,99.99
2018-10-03T23:24:55.570Z,99.99
2018-10-03T23:29:51.393Z,99.99
2018-10-03T23:34:47.791Z,99.99
2018-10-03T23:39:43.482Z,99.99
2018-10-03T23:44:40.228Z,99.99
2018-10-03T23:49:36.623Z,99.99
2018-10-03T23:54:33.095Z,99.99
2018-10-03T23:59:29.528Z,99.99
